Iowa Falls, Iowa
Current Conditions -  °F | °C
As of 6:55 AM on Friday 19 Dec 2014 (Local Time) from KIFA Reporting Station
Overcast Overcast  
Wind Chill: -4°   Ceiling: 2800
Heat Index: -4°   Visibility: 10mi
Dew Point: -5°   Wind: 3mph
Humidity: 88%   Direction: 130°SE
Pressure: 30.26"   Gusts: NA
Location:  42.52°N, 93.26°W
Report Text: KIFA 191255Z AUTO 13003KT 10SM SCT010 BKN028 OVC036 M04/M05 A3026 RMK AO2 T10361053
Loading
Personal Weather Stations






























Interactive Weather Map New forecast layout! Learn more

10-Day Weather Forecast

Advertisements
Track Severe Weather on mobile